sensor_id;sensor_type;location;lat;lon;timestamp;pressure;altitude;pressure_sealevel;temperature;humidity
20825;BME280;10573;50.936;6.978;2024-03-02T00:00:21;99724.59;;;10.40;56.28
20825;BME280;10573;50.936;6.978;2024-03-02T00:02:48;99721.00;;;10.32;56.67
20825;BME280;10573;50.936;6.978;2024-03-02T00:05:16;99720.28;;;10.21;56.77
20825;BME280;10573;50.936;6.978;2024-03-02T00:07:43;99715.75;;;10.38;56.39
20825;BME280;10573;50.936;6.978;2024-03-02T00:10:10;99710.66;;;10.35;56.41
20825;BME280;10573;50.936;6.978;2024-03-02T00:12:39;99720.47;;;10.28;56.69
20825;BME280;10573;50.936;6.978;2024-03-02T00:17:55;99724.28;;;10.52;56.26
20825;BME280;10573;50.936;6.978;2024-03-02T00:20:23;99709.63;;;10.45;56.18
20825;BME280;10573;50.936;6.978;2024-03-02T00:22:49;99703.31;;;10.61;55.89
20825;BME280;10573;50.936;6.978;2024-03-02T00:25:16;99693.97;;;10.55;55.87
20825;BME280;10573;50.936;6.978;2024-03-02T00:27:41;99708.25;;;10.73;55.69
20825;BME280;10573;50.936;6.978;2024-03-02T00:32:56;99689.03;;;10.50;55.83
20825;BME280;10573;50.936;6.978;2024-03-02T00:35:22;99689.16;;;10.82;55.23
20825;BME280;10573;50.936;6.978;2024-03-02T00:37:48;99687.81;;;10.69;55.73
20825;BME280;10573;50.936;6.978;2024-03-02T00:40:14;99689.38;;;10.64;55.63
20825;BME280;10573;50.936;6.978;2024-03-02T00:42:40;99696.34;;;10.50;55.95
20825;BME280;10573;50.936;6.978;2024-03-02T00:45:07;99695.66;;;10.56;55.84
20825;BME280;10573;50.936;6.978;2024-03-02T00:47:38;99684.91;;;10.79;54.89
20825;BME280;10573;50.936;6.978;2024-03-02T00:50:05;99682.69;;;10.83;55.05
20825;BME280;10573;50.936;6.978;2024-03-02T00:52:30;99693.59;;;10.58;55.70
20825;BME280;10573;50.936;6.978;2024-03-02T00:54:58;99694.09;;;10.95;54.59
20825;BME280;10573;50.936;6.978;2024-03-02T00:57:24;99686.81;;;10.70;55.19
20825;BME280;10573;50.936;6.978;2024-03-02T00:59:51;99694.59;;;10.90;54.71
20825;BME280;10573;50.936;6.978;2024-03-02T01:02:16;99703.47;;;10.75;55.14
20825;BME280;10573;50.936;6.978;2024-03-02T01:04:42;99688.16;;;10.74;54.99
20825;BME280;10573;50.936;6.978;2024-03-02T01:07:07;99695.31;;;10.67;55.09
20825;BME280;10573;50.936;6.978;2024-03-02T01:09:33;99697.00;;;10.77;55.04
20825;BME280;10573;50.936;6.978;2024-03-02T01:11:58;99696.00;;;10.69;55.08
20825;BME280;10573;50.936;6.978;2024-03-02T01:14:23;99696.00;;;10.69;55.22
20825;BME280;10573;50.936;6.978;2024-03-02T01:16:49;99697.69;;;10.54;55.22
20825;BME280;10573;50.936;6.978;2024-03-02T01:19:14;99681.66;;;10.75;54.67
20825;BME280;10573;50.936;6.978;2024-03-02T01:21:40;99689.38;;;10.64;54.89
20825;BME280;10573;50.936;6.978;2024-03-02T01:24:06;99693.09;;;10.63;55.24
20825;BME280;10573;50.936;6.978;2024-03-02T01:26:31;99680.31;;;10.80;54.70
20825;BME280;10573;50.936;6.978;2024-03-02T01:28:57;99685.13;;;10.61;55.24
20825;BME280;10573;50.936;6.978;2024-03-02T01:31:22;99681.38;;;10.70;54.79
20825;BME280;10573;50.936;6.978;2024-03-02T01:33:48;99688.16;;;10.74;54.59
20825;BME280;10573;50.936;6.978;2024-03-02T01:36:13;99682.00;;;10.81;54.46
20825;BME280;10573;50.936;6.978;2024-03-02T01:38:39;99687.81;;;10.69;54.72
20825;BME280;10573;50.936;6.978;2024-03-02T01:41:04;99690.56;;;10.53;55.21
20825;BME280;10573;50.936;6.978;2024-03-02T01:43:30;99688.16;;;10.58;55.25
20825;BME280;10573;50.936;6.978;2024-03-02T01:45:55;99682.03;;;10.64;55.18
20825;BME280;10573;50.936;6.978;2024-03-02T01:48:21;99668.09;;;10.59;55.04
20825;BME280;10573;50.936;6.978;2024-03-02T01:50:47;99672.50;;;10.68;54.96
20825;BME280;10573;50.936;6.978;2024-03-02T01:53:12;99674.38;;;10.76;54.91
20825;BME280;10573;50.936;6.978;2024-03-02T01:55:38;99666.72;;;10.80;54.78
20825;BME280;10573;50.936;6.978;2024-03-02T01:58:03;99679.63;;;10.86;54.46
20825;BME280;10573;50.936;6.978;2024-03-02T02:00:29;99684.75;;;10.64;54.92
20825;BME280;10573;50.936;6.978;2024-03-02T02:02:55;99676.41;;;10.66;54.95
20825;BME280;10573;50.936;6.978;2024-03-02T02:05:20;99670.94;;;10.74;54.96
20825;BME280;10573;50.936;6.978;2024-03-02T02:07:46;99672.31;;;10.78;54.81
20825;BME280;10573;50.936;6.978;2024-03-02T02:10:11;99668.94;;;10.68;54.80
20825;BME280;10573;50.936;6.978;2024-03-02T02:12:37;99666.38;;;10.74;54.84
20825;BME280;10573;50.936;6.978;2024-03-02T02:15:04;99668.44;;;10.56;55.14
20825;BME280;10573;50.936;6.978;2024-03-02T02:17:30;99661.75;;;10.75;54.71
20825;BME280;10573;50.936;6.978;2024-03-02T02:19:56;99657.34;;;10.74;54.87
20825;BME280;10573;50.936;6.978;2024-03-02T02:22:21;99657.66;;;10.79;54.56
20825;BME280;10573;50.936;6.978;2024-03-02T02:24:46;99660.53;;;10.86;54.22
20825;BME280;10573;50.936;6.978;2024-03-02T02:27:12;99654.59;;;10.82;54.30
20825;BME280;10573;50.936;6.978;2024-03-02T02:29:40;99663.47;;;10.76;54.45
20825;BME280;10573;50.936;6.978;2024-03-02T02:32:06;99655.44;;;10.83;54.47
20825;BME280;10573;50.936;6.978;2024-03-02T02:34:31;99657.19;;;10.67;54.52
20825;BME280;10573;50.936;6.978;2024-03-02T02:36:56;99661.91;;;10.82;54.04
20825;BME280;10573;50.936;6.978;2024-03-02T02:39:22;99653.41;;;10.77;54.31
20825;BME280;10573;50.936;6.978;2024-03-02T02:41:48;99655.63;;;10.81;54.13
20825;BME280;10573;50.936;6.978;2024-03-02T02:44:13;99646.44;;;10.74;54.27
20825;BME280;10573;50.936;6.978;2024-03-02T02:46:40;99651.69;;;10.75;54.12
20825;BME280;10573;50.936;6.978;2024-03-02T02:49:05;99646.91;;;10.86;53.99
20825;BME280;10573;50.936;6.978;2024-03-02T02:51:31;99643.16;;;10.95;53.71
20825;BME280;10573;50.936;6.978;2024-03-02T02:53:56;99646.59;;;10.81;53.90
20825;BME280;10573;50.936;6.978;2024-03-02T02:56:22;99640.16;;;10.65;54.35
20825;BME280;10573;50.936;6.978;2024-03-02T02:58:47;99650.50;;;10.78;53.96
20825;BME280;10573;50.936;6.978;2024-03-02T03:01:13;99639.44;;;10.88;53.90
20825;BME280;10573;50.936;6.978;2024-03-02T03:03:38;99649.13;;;10.90;53.84
20825;BME280;10573;50.936;6.978;2024-03-02T03:06:04;99643.03;;;10.80;53.83
20825;BME280;10573;50.936;6.978;2024-03-02T03:08:29;99641.44;;;10.94;53.72
20825;BME280;10573;50.936;6.978;2024-03-02T03:10:55;99641.63;;;10.93;53.73
20825;BME280;10573;50.936;6.978;2024-03-02T03:13:20;99651.06;;;10.65;54.29
20825;BME280;10573;50.936;6.978;2024-03-02T03:15:45;99648.47;;;10.80;53.81
20825;BME280;10573;50.936;6.978;2024-03-02T03:18:11;99648.28;;;10.90;53.90
20825;BME280;10573;50.936;6.978;2024-03-02T03:20:36;99649.16;;;10.74;54.10
20825;BME280;10573;50.936;6.978;2024-03-02T03:23:02;99646.78;;;10.79;53.96
20825;BME280;10573;50.936;6.978;2024-03-02T03:25:29;99651.69;;;10.75;53.84
20825;BME280;10573;50.936;6.978;2024-03-02T03:27:54;99667.09;;;10.52;54.47
20825;BME280;10573;50.936;6.978;2024-03-02T03:30:20;99660.75;;;10.68;54.19
20825;BME280;10573;50.936;6.978;2024-03-02T03:32:45;99666.84;;;10.78;54.07
20825;BME280;10573;50.936;6.978;2024-03-02T03:35:10;99663.63;;;10.83;54.06
20825;BME280;10573;50.936;6.978;2024-03-02T03:37:37;99666.00;;;10.78;53.97
20825;BME280;10573;50.936;6.978;2024-03-02T03:40:03;99678.47;;;10.64;54.06
20825;BME280;10573;50.936;6.978;2024-03-02T03:42:35;99667.56;;;10.72;54.12
20825;BME280;10573;50.936;6.978;2024-03-02T03:45:01;99676.06;;;10.77;54.07
20825;BME280;10573;50.936;6.978;2024-03-02T03:47:26;99665.16;;;10.69;54.19
20825;BME280;10573;50.936;6.978;2024-03-02T03:49:51;99663.31;;;10.69;54.14
20825;BME280;10573;50.936;6.978;2024-03-02T03:52:17;99668.25;;;10.66;54.38
20825;BME280;10573;50.936;6.978;2024-03-02T03:54:42;99671.84;;;10.66;54.47
20825;BME280;10573;50.936;6.978;2024-03-02T03:57:08;99675.75;;;10.72;54.33
20825;BME280;10573;50.936;6.978;2024-03-02T03:59:33;99684.06;;;10.62;54.45
20825;BME280;10573;50.936;6.978;2024-03-02T04:01:59;99692.25;;;10.54;54.77
20825;BME280;10573;50.936;6.978;2024-03-02T04:04:24;99679.66;;;10.36;54.81
20825;BME280;10573;50.936;6.978;2024-03-02T04:06:50;99681.03;;;10.40;55.20
20825;BME280;10573;50.936;6.978;2024-03-02T04:09:15;99682.91;;;10.48;54.95
20825;BME280;10573;50.936;6.978;2024-03-02T04:11:40;99684.09;;;10.37;55.25
20825;BME280;10573;50.936;6.978;2024-03-02T04:14:06;99682.72;;;10.25;55.68
20825;BME280;10573;50.936;6.978;2024-03-02T04:16:31;99680.34;;;10.22;55.54
20825;BME280;10573;50.936;6.978;2024-03-02T04:18:57;99687.47;;;10.31;55.47
20825;BME280;10573;50.936;6.978;2024-03-02T04:21:22;99696.31;;;10.25;55.76
20825;BME280;10573;50.936;6.978;2024-03-02T04:23:47;99691.06;;;10.15;55.94
20825;BME280;10573;50.936;6.978;2024-03-02T04:26:13;99693.09;;;10.38;55.76
20825;BME280;10573;50.936;6.978;2024-03-02T04:28:40;99701.06;;;10.31;55.65
20825;BME280;10573;50.936;6.978;2024-03-02T04:31:05;99700.94;;;10.33;55.59
20825;BME280;10573;50.936;6.978;2024-03-02T04:33:30;99703.16;;;10.37;55.59
20825;BME280;10573;50.936;6.978;2024-03-02T04:35:56;99704.31;;;10.18;55.83
20825;BME280;10573;50.936;6.978;2024-03-02T04:38:22;99704.84;;;10.30;55.53
20825;BME280;10573;50.936;6.978;2024-03-02T04:40:47;99705.84;;;10.13;56.19
20825;BME280;10573;50.936;6.978;2024-03-02T04:43:13;99714.66;;;9.98;56.42
20825;BME280;10573;50.936;6.978;2024-03-02T04:45:42;99710.94;;;10.07;56.17
20825;BME280;10573;50.936;6.978;2024-03-02T04:48:08;99717.03;;;10.10;56.44
20825;BME280;10573;50.936;6.978;2024-03-02T04:50:33;99717.03;;;10.10;56.11
20825;BME280;10573;50.936;6.978;2024-03-02T04:52:58;99710.59;;;10.19;56.00
20825;BME280;10573;50.936;6.978;2024-03-02T04:55:24;99717.03;;;9.93;56.65
20825;BME280;10573;50.936;6.978;2024-03-02T04:57:52;99716.38;;;9.99;56.61
20825;BME280;10573;50.936;6.978;2024-03-02T05:00:20;99722.00;;;10.06;56.30
20825;BME280;10573;50.936;6.978;2024-03-02T05:02:46;99727.91;;;9.93;56.70
20825;BME280;10573;50.936;6.978;2024-03-02T05:05:11;99727.09;;;10.01;56.37
20825;BME280;10573;50.936;6.978;2024-03-02T05:07:36;99720.09;;;9.98;56.58
20825;BME280;10573;50.936;6.978;2024-03-02T05:10:02;99727.88;;;9.77;57.13
20825;BME280;10573;50.936;6.978;2024-03-02T05:12:27;99733.94;;;9.62;57.47
20825;BME280;10573;50.936;6.978;2024-03-02T05:15:12;99735.03;;;9.78;57.11
20825;BME280;10573;50.936;6.978;2024-03-02T05:17:39;99726.34;;;9.74;57.27
20825;BME280;10573;50.936;6.978;2024-03-02T05:20:06;99721.72;;;9.66;57.62
20825;BME280;10573;50.936;6.978;2024-03-02T05:22:33;99705.88;;;9.53;58.02
20825;BME280;10573;50.936;6.978;2024-03-02T05:24:59;99708.06;;;9.50;57.84
20825;BME280;10573;50.936;6.978;2024-03-02T05:27:26;99710.81;;;9.58;57.80
20825;BME280;10573;50.936;6.978;2024-03-02T05:29:51;99708.88;;;9.42;58.36
20825;BME280;10573;50.936;6.978;2024-03-02T05:32:17;99718.22;;;9.39;58.35
20825;BME280;10573;50.936;6.978;2024-03-02T05:34:42;99714.97;;;9.36;58.38
20825;BME280;10573;50.936;6.978;2024-03-02T05:37:07;99707.50;;;9.38;58.07
20825;BME280;10573;50.936;6.978;2024-03-02T05:39:32;99709.81;;;9.59;57.73
20825;BME280;10573;50.936;6.978;2024-03-02T05:41:58;99711.69;;;9.24;58.26
20825;BME280;10573;50.936;6.978;2024-03-02T05:44:23;99711.97;;;9.47;58.26
20825;BME280;10573;50.936;6.978;2024-03-02T05:46:48;99704.28;;;9.43;58.29
20825;BME280;10573;50.936;6.978;2024-03-02T05:49:14;99716.75;;;9.53;57.85
20825;BME280;10573;50.936;6.978;2024-03-02T05:51:39;99708.63;;;9.62;57.69
20825;BME280;10573;50.936;6.978;2024-03-02T05:54:05;99704.19;;;9.61;57.38
20825;BME280;10573;50.936;6.978;2024-03-02T05:56:30;99706.88;;;9.44;57.73
20825;BME280;10573;50.936;6.978;2024-03-02T05:58:55;99705.72;;;9.63;57.47
20825;BME280;10573;50.936;6.978;2024-03-02T06:01:40;99711.16;;;9.55;57.57
20825;BME280;10573;50.936;6.978;2024-03-02T06:04:06;99713.25;;;9.78;57.07
20825;BME280;10573;50.936;6.978;2024-03-02T06:06:31;99720.00;;;9.65;57.54
20825;BME280;10573;50.936;6.978;2024-03-02T06:09:01;99718.19;;;9.74;57.22
20825;BME280;10573;50.936;6.978;2024-03-02T06:11:27;99720.66;;;9.51;57.78
20825;BME280;10573;50.936;6.978;2024-03-02T06:13:53;99724.41;;;9.58;57.56
20825;BME280;10573;50.936;6.978;2024-03-02T06:16:18;99726.50;;;9.72;57.51
20825;BME280;10573;50.936;6.978;2024-03-02T06:18:43;99733.44;;;9.67;57.61
20825;BME280;10573;50.936;6.978;2024-03-02T06:21:09;99728.88;;;9.67;57.36
20825;BME280;10573;50.936;6.978;2024-03-02T06:23:34;99722.97;;;9.88;56.79
20825;BME280;10573;50.936;6.978;2024-03-02T06:26:01;99731.25;;;9.70;57.47
20825;BME280;10573;50.936;6.978;2024-03-02T06:28:27;99726.19;;;9.92;56.96
20825;BME280;10573;50.936;6.978;2024-03-02T06:30:53;99733.78;;;9.64;57.44
20825;BME280;10573;50.936;6.978;2024-03-02T06:33:19;99743.84;;;9.80;57.27
20825;BME280;10573;50.936;6.978;2024-03-02T06:35:44;99740.09;;;9.72;57.45
20825;BME280;10573;50.936;6.978;2024-03-02T06:38:10;99741.25;;;9.62;57.81
20825;BME280;10573;50.936;6.978;2024-03-02T06:40:35;99741.50;;;9.85;57.40
20825;BME280;10573;50.936;6.978;2024-03-02T06:43:02;99730.22;;;9.71;57.92
20825;BME280;10573;50.936;6.978;2024-03-02T06:45:28;99729.25;;;9.81;57.20
20825;BME280;10573;50.936;6.978;2024-03-02T06:47:55;99741.84;;;9.90;57.11
20825;BME280;10573;50.936;6.978;2024-03-02T06:50:21;99746.56;;;9.80;57.40
20825;BME280;10573;50.936;6.978;2024-03-02T06:52:47;99752.34;;;9.77;57.32
20825;BME280;10573;50.936;6.978;2024-03-02T06:55:12;99754.53;;;9.73;57.78
20825;BME280;10573;50.936;6.978;2024-03-02T06:57:38;99751.53;;;9.84;57.76
20825;BME280;10573;50.936;6.978;2024-03-02T07:00:04;99740.50;;;9.94;57.38
20825;BME280;10573;50.936;6.978;2024-03-02T07:02:30;99739.44;;;9.87;57.34
20825;BME280;10573;50.936;6.978;2024-03-02T07:04:56;99739.13;;;9.82;57.47
20825;BME280;10573;50.936;6.978;2024-03-02T07:07:21;99744.06;;;10.03;57.09
20825;BME280;10573;50.936;6.978;2024-03-02T07:09:47;99750.19;;;9.97;57.07
20825;BME280;10573;50.936;6.978;2024-03-02T07:12:13;99760.41;;;10.03;56.93
20825;BME280;10573;50.936;6.978;2024-03-02T07:14:38;99749.03;;;9.99;57.13
20825;BME280;10573;50.936;6.978;2024-03-02T07:17:22;99762.84;;;10.22;56.60
20825;BME280;10573;50.936;6.978;2024-03-02T07:19:47;99764.09;;;10.61;55.87
20825;BME280;10573;50.936;6.978;2024-03-02T07:22:13;99765.13;;;10.93;55.09
20825;BME280;10573;50.936;6.978;2024-03-02T07:24:44;99776.31;;;10.98;54.50
20825;BME280;10573;50.936;6.978;2024-03-02T07:27:11;99766.13;;;11.00;54.36
20825;BME280;10573;50.936;6.978;2024-03-02T07:29:38;99770.88;;;11.15;54.28
20825;BME280;10573;50.936;6.978;2024-03-02T07:32:04;99760.88;;;11.55;53.22
20825;BME280;10573;50.936;6.978;2024-03-02T07:34:29;99758.47;;;12.00;52.24
20825;BME280;10573;50.936;6.978;2024-03-02T07:36:55;99761.38;;;11.98;51.80
20825;BME280;10573;50.936;6.978;2024-03-02T07:39:21;99760.00;;;12.02;51.53
20825;BME280;10573;50.936;6.978;2024-03-02T07:41:46;99772.59;;;12.35;51.01
20825;BME280;10573;50.936;6.978;2024-03-02T07:44:12;99760.25;;;12.62;50.15
20825;BME280;10573;50.936;6.978;2024-03-02T07:46:41;99753.78;;;12.78;50.01
20825;BME280;10573;50.936;6.978;2024-03-02T07:49:08;99756.31;;;12.65;49.81
20825;BME280;10573;50.936;6.978;2024-03-02T07:51:33;99764.75;;;12.55;50.28
20825;BME280;10573;50.936;6.978;2024-03-02T07:53:59;99769.16;;;12.09;51.06
20825;BME280;10573;50.936;6.978;2024-03-02T07:56:24;99757.25;;;12.02;51.45
20825;BME280;10573;50.936;6.978;2024-03-02T07:58:50;99770.78;;;11.87;51.85
20825;BME280;10573;50.936;6.978;2024-03-02T08:01:15;99773.00;;;11.84;52.24
20825;BME280;10573;50.936;6.978;2024-03-02T08:03:41;99771.13;;;12.47;51.02
20825;BME280;10573;50.936;6.978;2024-03-02T08:06:06;99757.66;;;13.22;49.24
20825;BME280;10573;50.936;6.978;2024-03-02T08:08:32;99765.13;;;13.88;47.51
20825;BME280;10573;50.936;6.978;2024-03-02T08:10:57;99753.06;;;14.62;46.04
20825;BME280;10573;50.936;6.978;2024-03-02T08:13:23;99757.69;;;15.05;45.09
20825;BME280;10573;50.936;6.978;2024-03-02T08:15:48;99765.47;;;14.80;45.22
20825;BME280;10573;50.936;6.978;2024-03-02T08:18:14;99767.28;;;14.94;45.11
20825;BME280;10573;50.936;6.978;2024-03-02T08:20:40;99762.44;;;15.18;43.98
20825;BME280;10573;50.936;6.978;2024-03-02T08:23:06;99755.44;;;15.50;43.31
20825;BME280;10573;50.936;6.978;2024-03-02T08:25:32;99758.28;;;15.64;43.40
20825;BME280;10573;50.936;6.978;2024-03-02T08:27:58;99767.69;;;16.44;41.92
20825;BME280;10573;50.936;6.978;2024-03-02T08:30:23;99772.78;;;15.57;43.29
20825;BME280;10573;50.936;6.978;2024-03-02T08:32:48;99795.84;;;14.20;46.36
20825;BME280;10573;50.936;6.978;2024-03-02T08:35:14;99783.13;;;14.92;45.19
20825;BME280;10573;50.936;6.978;2024-03-02T08:37:41;99774.47;;;16.62;41.79
20825;BME280;10573;50.936;6.978;2024-03-02T08:40:07;99772.44;;;17.18;40.63
20825;BME280;10573;50.936;6.978;2024-03-02T08:42:33;99766.91;;;17.38;39.87
20825;BME280;10573;50.936;6.978;2024-03-02T08:44:59;99761.19;;;16.86;40.30
20825;BME280;10573;50.936;6.978;2024-03-02T08:47:26;99767.47;;;16.39;41.15
20825;BME280;10573;50.936;6.978;2024-03-02T08:49:52;99769.06;;;16.14;42.19
20825;BME280;10573;50.936;6.978;2024-03-02T08:52:18;99773.47;;;16.01;41.89
20825;BME280;10573;50.936;6.978;2024-03-02T08:54:43;99781.97;;;16.13;42.31
20825;BME280;10573;50.936;6.978;2024-03-02T08:57:09;99789.28;;;15.29;43.56
20825;BME280;10573;50.936;6.978;2024-03-02T08:59:36;99784.00;;;14.99;44.57
20825;BME280;10573;50.936;6.978;2024-03-02T09:02:01;99781.19;;;14.49;45.28
20825;BME280;10573;50.936;6.978;2024-03-02T09:04:27;99792.38;;;13.96;46.41
20825;BME280;10573;50.936;6.978;2024-03-02T09:06:53;99797.41;;;13.63;47.45
20825;BME280;10573;50.936;6.978;2024-03-02T09:09:19;99799.50;;;13.46;47.70
20825;BME280;10573;50.936;6.978;2024-03-02T09:11:46;99813.97;;;12.93;49.53
20825;BME280;10573;50.936;6.978;2024-03-02T09:14:12;99807.47;;;13.32;48.86
20825;BME280;10573;50.936;6.978;2024-03-02T09:16:37;99807.19;;;13.27;48.81
20825;BME280;10573;50.936;6.978;2024-03-02T09:19:03;99806.50;;;13.25;48.85
20825;BME280;10573;50.936;6.978;2024-03-02T09:21:28;99805.19;;;13.21;49.02
20825;BME280;10573;50.936;6.978;2024-03-02T09:23:55;99803.47;;;13.20;49.06
20825;BME280;10573;50.936;6.978;2024-03-02T09:26:20;99797.59;;;13.46;48.75
20825;BME280;10573;50.936;6.978;2024-03-02T09:28:46;99800.00;;;13.26;49.13
20825;BME280;10573;50.936;6.978;2024-03-02T09:31:11;99785.16;;;13.58;48.33
20825;BME280;10573;50.936;6.978;2024-03-02T09:33:37;99794.25;;;13.21;48.54
20825;BME280;10573;50.936;6.978;2024-03-02T09:36:04;99802.13;;;13.39;48.56
20825;BME280;10573;50.936;6.978;2024-03-02T09:38:32;99802.16;;;13.54;48.01
20825;BME280;10573;50.936;6.978;2024-03-02T09:40:58;99792.41;;;13.66;48.10
20825;BME280;10573;50.936;6.978;2024-03-02T09:43:24;99802.34;;;13.29;48.45
20825;BME280;10573;50.936;6.978;2024-03-02T09:45:50;99805.66;;;13.24;48.72
20825;BME280;10573;50.936;6.978;2024-03-02T09:48:16;99785.63;;;13.62;47.79
20825;BME280;10573;50.936;6.978;2024-03-02T09:50:43;99791.75;;;13.79;47.74
20825;BME280;10573;50.936;6.978;2024-03-02T09:53:10;99787.34;;;13.63;47.76
20825;BME280;10573;50.936;6.978;2024-03-02T09:55:36;99774.16;;;14.03;47.24
20825;BME280;10573;50.936;6.978;2024-03-02T09:58:03;99775.03;;;13.89;47.25
20825;BME280;10573;50.936;6.978;2024-03-02T10:00:28;99779.63;;;13.88;47.09
20825;BME280;10573;50.936;6.978;2024-03-02T10:02:53;99773.91;;;13.83;47.25
20825;BME280;10573;50.936;6.978;2024-03-02T10:05:26;99776.00;;;13.66;47.74
20825;BME280;10573;50.936;6.978;2024-03-02T10:08:02;99775.53;;;13.48;48.10
20825;BME280;10573;50.936;6.978;2024-03-02T10:10:38;99784.31;;;13.58;47.58
20825;BME280;10573;50.936;6.978;2024-03-02T10:13:11;99792.72;;;13.56;47.63
20825;BME280;10573;50.936;6.978;2024-03-02T10:15:37;99775.50;;;13.77;47.35
20825;BME280;10573;50.936;6.978;2024-03-02T10:18:11;99779.09;;;13.93;47.47
20825;BME280;10573;50.936;6.978;2024-03-02T10:20:37;99775.19;;;14.02;47.42
20825;BME280;10573;50.936;6.978;2024-03-02T10:23:15;99763.00;;;14.05;46.72
20825;BME280;10573;50.936;6.978;2024-03-02T10:25:42;99771.13;;;14.13;46.79
20825;BME280;10573;50.936;6.978;2024-03-02T10:28:08;99776.56;;;13.76;47.19
20825;BME280;10573;50.936;6.978;2024-03-02T10:30:35;99765.44;;;14.15;45.78
20825;BME280;10573;50.936;6.978;2024-03-02T10:33:01;99759.13;;;14.14;46.31
20825;BME280;10573;50.936;6.978;2024-03-02T10:35:27;99758.94;;;14.16;46.35
20825;BME280;10573;50.936;6.978;2024-03-02T10:37:53;99756.00;;;14.39;45.96
20825;BME280;10573;50.936;6.978;2024-03-02T10:40:22;99767.44;;;14.42;45.90
20825;BME280;10573;50.936;6.978;2024-03-02T10:42:49;99756.34;;;14.29;45.97
20825;BME280;10573;50.936;6.978;2024-03-02T10:45:15;99754.38;;;14.44;45.33
20825;BME280;10573;50.936;6.978;2024-03-02T10:47:42;99750.09;;;14.79;45.14
20825;BME280;10573;50.936;6.978;2024-03-02T10:50:09;99742.19;;;14.69;45.31
20825;BME280;10573;50.936;6.978;2024-03-02T10:52:35;99736.75;;;14.32;45.46
20825;BME280;10573;50.936;6.978;2024-03-02T10:55:01;99729.97;;;14.71;45.40
20825;BME280;10573;50.936;6.978;2024-03-02T10:57:27;99743.69;;;14.71;45.17
20825;BME280;10573;50.936;6.978;2024-03-02T11:00:02;99742.44;;;14.52;45.44
20825;BME280;10573;50.936;6.978;2024-03-02T11:02:30;99740.16;;;14.56;45.52
20825;BME280;10573;50.936;6.978;2024-03-02T11:04:56;99728.88;;;14.66;45.30
20825;BME280;10573;50.936;6.978;2024-03-02T11:07:26;99738.31;;;14.41;45.53
20825;BME280;10573;50.936;6.978;2024-03-02T11:10:00;99725.78;;;14.75;45.03
20825;BME280;10573;50.936;6.978;2024-03-02T11:12:38;99741.53;;;14.45;45.62
20825;BME280;10573;50.936;6.978;2024-03-02T11:15:10;99726.97;;;14.44;45.53
20825;BME280;10573;50.936;6.978;2024-03-02T11:17:38;99724.13;;;14.74;45.10
20825;BME280;10573;50.936;6.978;2024-03-02T11:20:06;99725.13;;;14.95;45.06
20825;BME280;10573;50.936;6.978;2024-03-02T11:22:35;99723.31;;;14.81;45.17
20825;BME280;10573;50.936;6.978;2024-03-02T11:25:01;99728.13;;;15.00;44.76
20825;BME280;10573;50.936;6.978;2024-03-02T11:33:05;99744.22;;;15.10;44.78
20825;BME280;10573;50.936;6.978;2024-03-02T11:35:45;99741.59;;;15.30;44.32
20825;BME280;10573;50.936;6.978;2024-03-02T11:38:14;99726.19;;;15.29;44.03
20825;BME280;10573;50.936;6.978;2024-03-02T11:40:40;99728.75;;;15.37;44.00
20825;BME280;10573;50.936;6.978;2024-03-02T11:43:06;99730.38;;;15.60;43.99
20825;BME280;10573;50.936;6.978;2024-03-02T11:45:33;99733.16;;;15.67;43.56
20825;BME280;10573;50.936;6.978;2024-03-02T11:47:59;99718.69;;;15.44;43.70
20825;BME280;10573;50.936;6.978;2024-03-02T11:50:36;99723.81;;;16.03;43.30
20825;BME280;10573;50.936;6.978;2024-03-02T11:53:03;99726.44;;;15.76;43.21
20825;BME280;10573;50.936;6.978;2024-03-02T11:55:37;99727.28;;;15.70;43.52
20825;BME280;10573;50.936;6.978;2024-03-02T11:58:08;99717.22;;;15.84;43.21
20825;BME280;10573;50.936;6.978;2024-03-02T12:00:34;99718.31;;;15.96;43.15
20825;BME280;10573;50.936;6.978;2024-03-02T12:03:07;99713.06;;;16.15;42.86
20825;BME280;10573;50.936;6.978;2024-03-02T12:05:33;99712.19;;;15.94;43.31
20825;BME280;10573;50.936;6.978;2024-03-02T12:08:01;99707.41;;;15.68;43.58
20825;BME280;10573;50.936;6.978;2024-03-02T12:10:28;99715.31;;;15.91;43.47
20825;BME280;10573;50.936;6.978;2024-03-02T12:13:06;99706.66;;;15.81;43.59
20825;BME280;10573;50.936;6.978;2024-03-02T12:15:37;99696.16;;;16.11;42.92
20825;BME280;10573;50.936;6.978;2024-03-02T12:18:03;99701.91;;;16.43;42.67
20825;BME280;10573;50.936;6.978;2024-03-02T12:20:30;99695.41;;;17.04;41.46
20825;BME280;10573;50.936;6.978;2024-03-02T12:23:02;99670.97;;;17.87;39.88
20825;BME280;10573;50.936;6.978;2024-03-02T12:25:30;99671.66;;;17.75;39.58
20825;BME280;10573;50.936;6.978;2024-03-02T12:27:57;99663.53;;;18.26;38.29
20825;BME280;10573;50.936;6.978;2024-03-02T12:30:23;99642.16;;;19.71;36.66
20825;BME280;10573;50.936;6.978;2024-03-02T12:32:50;99645.47;;;20.10;35.48
20825;BME280;10573;50.936;6.978;2024-03-02T12:35:15;99633.84;;;19.71;35.43
20825;BME280;10573;50.936;6.978;2024-03-02T12:37:48;99650.97;;;19.31;36.25
20825;BME280;10573;50.936;6.978;2024-03-02T12:40:15;99640.47;;;20.31;35.20
20825;BME280;10573;50.936;6.978;2024-03-02T12:42:44;99644.56;;;20.71;34.43
20825;BME280;10573;50.936;6.978;2024-03-02T12:45:09;99628.66;;;21.02;34.09
20825;BME280;10573;50.936;6.978;2024-03-02T12:47:36;99622.75;;;21.22;33.45
20825;BME280;10573;50.936;6.978;2024-03-02T12:50:02;99640.94;;;20.94;33.95
20825;BME280;10573;50.936;6.978;2024-03-02T12:52:28;99617.47;;;21.08;33.60
20825;BME280;10573;50.936;6.978;2024-03-02T12:54:58;99620.94;;;21.16;33.43
20825;BME280;10573;50.936;6.978;2024-03-02T12:57:31;99625.91;;;20.90;33.94
20825;BME280;10573;50.936;6.978;2024-03-02T13:00:03;99611.28;;;20.59;34.28
20825;BME280;10573;50.936;6.978;2024-03-02T13:02:36;99615.84;;;20.65;33.72
20825;BME280;10573;50.936;6.978;2024-03-02T13:05:06;99621.22;;;21.55;32.96
20825;BME280;10573;50.936;6.978;2024-03-02T13:07:32;99606.03;;;21.45;32.72
20825;BME280;10573;50.936;6.978;2024-03-02T13:09:59;99616.94;;;22.51;31.88